createdAt,value
2018-07-30T00:01:59.358Z,1.77
2018-07-30T00:04:34.626Z,2.10
2018-07-30T00:07:09.368Z,2.20
2018-07-30T00:09:44.140Z,2.42
2018-07-30T00:12:18.912Z,2.10
2018-07-30T00:14:53.652Z,1.90
2018-07-30T00:17:28.432Z,2.30
2018-07-30T00:20:03.735Z,2.27
2018-07-30T00:22:39.452Z,2.33
2018-07-30T00:25:14.184Z,2.00
2018-07-30T00:27:50.012Z,2.33
2018-07-30T00:30:24.816Z,2.42
2018-07-30T00:32:59.560Z,2.20
2018-07-30T00:35:34.302Z,1.92
2018-07-30T00:38:11.968Z,2.15
2018-07-30T00:40:46.235Z,2.40
2018-07-30T00:43:20.956Z,2.62
2018-07-30T00:45:55.751Z,2.60
2018-07-30T00:48:30.464Z,2.62
2018-07-30T00:51:04.845Z,2.45
2018-07-30T00:53:39.594Z,2.45
2018-07-30T00:56:14.330Z,2.80
2018-07-30T00:58:48.587Z,2.65
2018-07-30T01:01:23.337Z,2.85
2018-07-30T01:03:58.076Z,2.45
2018-07-30T01:06:32.821Z,2.37
2018-07-30T01:09:09.299Z,2.52
2018-07-30T01:11:43.560Z,2.65
2018-07-30T01:14:18.279Z,2.60
2018-07-30T01:16:53.275Z,2.95
2018-07-30T01:19:27.993Z,2.80
2018-07-30T01:22:02.757Z,2.55
2018-07-30T01:24:37.548Z,2.77
2018-07-30T01:27:11.822Z,2.55
2018-07-30T01:29:47.554Z,2.90
2018-07-30T01:32:23.342Z,2.80
2018-07-30T01:34:58.038Z,2.90
2018-07-30T01:37:32.777Z,2.27
2018-07-30T01:40:07.555Z,3.10
2018-07-30T01:42:42.285Z,3.08
2018-07-30T01:45:17.000Z,3.12
2018-07-30T01:47:52.283Z,3.20
2018-07-30T01:50:27.005Z,3.00
2018-07-30T01:53:01.748Z,2.80
2018-07-30T01:55:36.508Z,3.45
2018-07-30T01:58:11.787Z,3.02
2018-07-30T02:00:46.044Z,3.12
2018-07-30T02:03:20.851Z,3.25
2018-07-30T02:05:55.647Z,3.27
2018-07-30T02:08:30.493Z,3.17
2018-07-30T02:11:05.216Z,3.35
2018-07-30T02:13:40.937Z,3.83
2018-07-30T02:16:16.708Z,3.30
2018-07-30T02:18:52.128Z,3.30
2018-07-30T02:21:26.921Z,3.60
2018-07-30T02:24:03.332Z,3.55
2018-07-30T02:26:41.784Z,3.50
2018-07-30T02:29:17.522Z,3.50
2018-07-30T02:32:00.536Z,3.70
2018-07-30T02:34:39.746Z,3.55
2018-07-30T02:37:14.854Z,3.22
2018-07-30T02:39:49.076Z,3.90
2018-07-30T02:42:26.429Z,3.52
2018-07-30T02:45:01.500Z,3.35
2018-07-30T02:47:36.336Z,3.70
2018-07-30T02:50:11.085Z,3.58
2018-07-30T02:52:45.776Z,3.20
2018-07-30T02:55:20.101Z,3.50
2018-07-30T02:57:55.836Z,3.70
2018-07-30T03:00:30.112Z,4.17
2018-07-30T03:03:04.864Z,3.50
2018-07-30T03:05:39.788Z,3.50
2018-07-30T03:08:15.523Z,3.52
2018-07-30T03:10:51.346Z,4.12
2018-07-30T03:13:26.149Z,3.67
2018-07-30T03:16:04.403Z,3.98
2018-07-30T03:18:44.538Z,3.90
2018-07-30T03:21:38.159Z,3.67
2018-07-30T03:24:13.089Z,4.30
2018-07-30T03:26:47.851Z,3.83
2018-07-30T03:29:23.230Z,4.35
2018-07-30T03:31:57.987Z,4.20
2018-07-30T03:34:32.722Z,3.58
2018-07-30T03:37:07.014Z,4.30
2018-07-30T03:39:41.747Z,3.90
2018-07-30T03:42:26.700Z,4.20
2018-07-30T03:45:01.442Z,4.60
2018-07-30T03:47:36.199Z,4.37
2018-07-30T03:50:16.556Z,3.95
2018-07-30T03:52:51.365Z,4.15
2018-07-30T03:55:26.232Z,3.55
2018-07-30T03:58:09.273Z,5.20
2018-07-30T04:00:44.174Z,4.12
2018-07-30T04:03:19.033Z,4.60
2018-07-30T04:06:03.850Z,4.40
2018-07-30T04:08:38.753Z,4.65
2018-07-30T04:11:14.471Z,4.47
2018-07-30T04:13:50.208Z,4.85
2018-07-30T04:16:27.307Z,4.62
2018-07-30T04:19:02.061Z,4.53
2018-07-30T04:21:36.748Z,4.50
2018-07-30T04:24:11.510Z,4.90
2018-07-30T04:26:47.198Z,4.65
2018-07-30T04:29:21.924Z,4.92
2018-07-30T04:31:56.692Z,4.83
2018-07-30T04:34:32.448Z,4.70
2018-07-30T04:37:07.195Z,4.90
2018-07-30T04:39:41.901Z,4.95
2018-07-30T04:42:16.644Z,5.40
2018-07-30T04:44:51.380Z,5.37
2018-07-30T04:47:26.082Z,4.85
2018-07-30T04:50:00.764Z,4.80
2018-07-30T04:52:35.549Z,4.83
2018-07-30T04:55:10.372Z,4.80
2018-07-30T04:57:45.140Z,4.58
2018-07-30T05:00:19.884Z,5.12
2018-07-30T05:06:03.874Z,4.92
2018-07-30T05:08:38.663Z,4.83
2018-07-30T05:11:13.417Z,5.12
2018-07-30T05:13:48.624Z,4.97
2018-07-30T05:16:23.354Z,5.30
2018-07-30T05:18:59.105Z,4.95
2018-07-30T05:21:34.844Z,4.95
2018-07-30T05:24:09.693Z,5.62
2018-07-30T05:26:44.428Z,4.78
2018-07-30T05:29:19.157Z,5.22
2018-07-30T05:31:53.912Z,5.17
2018-07-30T05:34:28.629Z,5.15
2018-07-30T05:37:03.724Z,5.15
2018-07-30T05:39:38.486Z,5.37
2018-07-30T05:42:13.256Z,5.45
2018-07-30T05:44:47.944Z,5.25
2018-07-30T05:47:22.715Z,5.05
2018-07-30T05:49:57.443Z,5.15
2018-07-30T05:52:32.195Z,5.72
2018-07-30T05:55:09.429Z,5.65
2018-07-30T05:57:43.665Z,5.35
2018-07-30T06:00:18.772Z,4.60
2018-07-30T06:02:54.034Z,5.20
2018-07-30T06:05:28.880Z,5.00
2018-07-30T06:08:03.775Z,5.55
2018-07-30T06:10:39.088Z,5.12
2018-07-30T06:13:13.924Z,5.37
2018-07-30T06:15:48.699Z,5.00
2018-07-30T06:18:24.438Z,5.25
2018-07-30T06:20:59.267Z,5.53
2018-07-30T06:23:34.145Z,5.67
2018-07-30T06:26:08.892Z,5.87
2018-07-30T06:28:43.628Z,5.40
2018-07-30T06:31:17.918Z,5.65
2018-07-30T06:33:53.156Z,5.72
2018-07-30T06:36:30.586Z,5.22
2018-07-30T06:39:07.794Z,5.42
2018-07-30T06:41:43.647Z,5.72
2018-07-30T06:44:18.395Z,5.55
2018-07-30T06:46:54.152Z,5.87
2018-07-30T06:49:28.853Z,5.67
2018-07-30T06:52:03.671Z,5.12
2018-07-30T06:54:39.477Z,5.45
2018-07-30T06:57:15.251Z,5.42
2018-07-30T06:59:49.996Z,5.42
2018-07-30T07:02:25.097Z,5.12
2018-07-30T07:04:59.402Z,5.30
2018-07-30T07:07:35.124Z,5.58
2018-07-30T07:10:12.088Z,5.65
2018-07-30T07:12:46.859Z,5.58
2018-07-30T07:15:21.612Z,5.80
2018-07-30T07:17:56.318Z,5.80
2018-07-30T07:20:32.095Z,5.90
2018-07-30T07:23:07.191Z,6.00
2018-07-30T07:25:41.933Z,6.00
2018-07-30T07:28:17.192Z,5.92
2018-07-30T07:30:51.994Z,5.60
2018-07-30T07:33:27.748Z,5.55
2018-07-30T07:36:01.992Z,5.15
2018-07-30T07:38:37.781Z,5.17
2018-07-30T07:41:13.495Z,5.35
2018-07-30T07:43:49.284Z,5.55
2018-07-30T07:46:25.012Z,5.35
2018-07-30T07:48:59.747Z,5.42
2018-07-30T07:51:34.212Z,5.57
2018-07-30T07:54:09.318Z,5.13
2018-07-30T07:56:43.752Z,4.90
2018-07-30T07:59:17.779Z,5.40
2018-07-30T08:01:52.389Z,4.80
2018-07-30T08:04:26.864Z,5.40
2018-07-30T08:07:02.156Z,5.23
2018-07-30T08:09:37.694Z,5.13
2018-07-30T08:12:13.020Z,5.10
2018-07-30T08:14:48.127Z,5.60
2018-07-30T08:17:23.340Z,4.93
2018-07-30T08:19:57.833Z,4.97
2018-07-30T08:22:32.252Z,5.27
2018-07-30T08:25:15.156Z,5.20
2018-07-30T08:27:51.245Z,5.27
2018-07-30T08:30:25.732Z,5.40
2018-07-30T08:32:59.649Z,5.20
2018-07-30T08:35:34.335Z,5.47
2018-07-30T08:38:08.777Z,5.33
2018-07-30T08:40:42.754Z,5.40
2018-07-30T08:43:17.241Z,4.80
2018-07-30T08:45:53.352Z,5.03
2018-07-30T08:48:27.485Z,5.50
2018-07-30T08:51:02.289Z,5.50
2018-07-30T08:53:36.723Z,5.37
2018-07-30T08:56:10.689Z,5.17
2018-07-30T08:58:45.201Z,5.00
2018-07-30T09:01:20.672Z,5.30
2018-07-30T09:03:55.226Z,5.30
2018-07-30T09:06:29.150Z,5.37
2018-07-30T09:09:03.784Z,5.60
2018-07-30T09:11:38.499Z,5.37
2018-07-30T09:14:12.980Z,5.13
2018-07-30T09:16:47.456Z,5.40
2018-07-30T09:19:21.924Z,5.80
2018-07-30T09:21:56.361Z,5.33
2018-07-30T09:24:30.841Z,5.17
2018-07-30T09:27:06.314Z,5.53
2018-07-30T09:29:41.924Z,5.37
2018-07-30T09:32:16.388Z,5.13
2018-07-30T09:34:50.381Z,5.07
2018-07-30T09:37:24.818Z,5.03
2018-07-30T09:39:58.782Z,5.37
2018-07-30T09:42:33.316Z,5.13
2018-07-30T09:45:07.919Z,5.33
2018-07-30T09:47:42.421Z,5.27
2018-07-30T09:50:17.024Z,5.23
2018-07-30T09:52:51.551Z,5.53
2018-07-30T09:55:27.095Z,5.17
2018-07-30T09:58:01.524Z,4.80
2018-07-30T10:00:41.011Z,5.20
2018-07-30T10:03:15.456Z,5.03
2018-07-30T10:05:50.509Z,5.10
2018-07-30T10:08:24.979Z,5.13
2018-07-30T10:10:59.497Z,5.07
2018-07-30T10:13:35.795Z,4.83
2018-07-30T10:16:12.784Z,4.30
2018-07-30T10:21:44.184Z,5.47
2018-07-30T10:24:31.649Z,5.37
2018-07-30T10:27:27.111Z,4.77
2018-07-30T10:30:10.528Z,4.80
2018-07-30T10:32:53.033Z,5.07
2018-07-30T10:35:27.604Z,4.27
2018-07-30T10:38:06.619Z,4.87
2018-07-30T10:40:44.062Z,5.20
2018-07-30T10:43:18.457Z,5.20
2018-07-30T10:45:54.127Z,4.70
2018-07-30T10:48:28.603Z,4.67
2018-07-30T10:51:03.936Z,4.83
2018-07-30T10:53:40.292Z,4.90
2018-07-30T10:56:20.459Z,4.43
2018-07-30T10:58:59.951Z,5.27
2018-07-30T11:01:39.400Z,4.70
2018-07-30T11:04:23.811Z,4.70
2018-07-30T11:07:02.249Z,4.70
2018-07-30T11:09:40.311Z,4.87
2018-07-30T11:12:18.405Z,4.60
2018-07-30T11:14:54.294Z,5.00
2018-07-30T11:17:30.640Z,4.80
2018-07-30T11:20:07.306Z,4.80
2018-07-30T11:22:45.610Z,5.10
2018-07-30T11:25:20.084Z,5.20
2018-07-30T11:31:08.745Z,4.13
2018-07-30T11:33:43.190Z,4.97
2018-07-30T11:36:23.434Z,5.10
2018-07-30T11:38:59.140Z,4.87
2018-07-30T11:41:33.540Z,4.60
2018-07-30T11:44:15.657Z,5.30
2018-07-30T11:47:07.511Z,4.97
2018-07-30T11:49:42.070Z,4.60
2018-07-30T11:52:16.859Z,4.47
2018-07-30T11:54:51.347Z,4.30
2018-07-30T11:57:35.052Z,4.17
2018-07-30T12:00:10.620Z,4.73
2018-07-30T12:05:38.748Z,4.07
2018-07-30T12:08:18.366Z,4.13
2018-07-30T12:10:53.171Z,4.47
2018-07-30T12:13:29.526Z,4.37
2018-07-30T12:16:06.034Z,4.23
2018-07-30T12:18:44.882Z,4.80
2018-07-30T12:21:19.182Z,4.20
2018-07-30T12:23:56.556Z,4.30
2018-07-30T12:26:36.604Z,4.57
2018-07-30T12:29:13.469Z,4.17
2018-07-30T12:31:50.824Z,4.03
2018-07-30T12:34:31.920Z,4.10
2018-07-30T12:37:07.516Z,3.73
2018-07-30T12:39:47.709Z,4.03
2018-07-30T12:42:24.230Z,3.70
2018-07-30T12:45:02.176Z,3.50
2018-07-30T12:47:38.976Z,4.17
2018-07-30T12:50:16.299Z,3.60
2018-07-30T12:52:54.150Z,3.60
2018-07-30T12:55:29.613Z,4.00
2018-07-30T12:58:05.339Z,3.73
2018-07-30T13:00:42.483Z,3.87
2018-07-30T13:03:28.536Z,4.00
2018-07-30T13:06:08.838Z,4.10
2018-07-30T13:08:46.335Z,3.60
2018-07-30T13:11:24.448Z,3.93
2018-07-30T13:13:58.935Z,3.93
2018-07-30T13:16:36.980Z,3.70
2018-07-30T13:19:16.075Z,3.70
2018-07-30T13:21:54.603Z,3.60
2018-07-30T13:24:30.226Z,3.70
2018-07-30T13:27:08.025Z,3.53
2018-07-30T13:29:43.857Z,3.33
2018-07-30T13:32:21.441Z,3.40
2018-07-30T13:34:58.770Z,3.40
2018-07-30T13:37:33.736Z,3.50
2018-07-30T13:40:10.562Z,3.97
2018-07-30T13:42:47.640Z,3.87
2018-07-30T13:45:24.158Z,3.80
2018-07-30T13:48:01.246Z,4.10
2018-07-30T13:50:38.811Z,3.43
2018-07-30T13:53:14.660Z,3.70
2018-07-30T13:55:49.059Z,3.60
2018-07-30T13:58:23.516Z,3.67
2018-07-30T14:00:58.122Z,3.80
2018-07-30T14:03:32.595Z,3.93
2018-07-30T14:06:07.069Z,3.80
2018-07-30T14:08:41.703Z,3.50
2018-07-30T14:11:16.124Z,3.60
2018-07-30T14:13:50.973Z,3.53
2018-07-30T14:16:25.397Z,3.57
2018-07-30T14:19:00.875Z,3.60
2018-07-30T14:21:35.598Z,3.80
2018-07-30T14:24:10.320Z,3.73
2018-07-30T14:26:45.842Z,3.50
2018-07-30T14:29:21.320Z,3.20
2018-07-30T14:31:59.343Z,3.60
2018-07-30T14:34:33.764Z,3.70
2018-07-30T14:37:08.224Z,3.50
2018-07-30T14:39:42.602Z,3.43
2018-07-30T14:42:17.111Z,3.73
2018-07-30T14:44:51.547Z,3.43
2018-07-30T14:47:26.029Z,3.57
2018-07-30T14:49:59.970Z,4.00
2018-07-30T14:52:34.435Z,3.47
2018-07-30T14:55:09.119Z,3.67
2018-07-30T14:57:43.588Z,3.47
2018-07-30T15:00:18.000Z,3.60
2018-07-30T15:02:53.445Z,3.50
2018-07-30T15:05:27.965Z,4.00
2018-07-30T15:08:02.406Z,3.97
2018-07-30T15:10:36.894Z,3.57
2018-07-30T15:13:11.270Z,3.70
2018-07-30T15:15:46.756Z,3.70
2018-07-30T15:18:21.175Z,3.93
2018-07-30T15:20:55.167Z,3.37
2018-07-30T15:23:45.236Z,3.67
2018-07-30T15:26:38.177Z,3.43
2018-07-30T15:29:12.623Z,3.37
2018-07-30T15:31:48.931Z,3.23
2018-07-30T15:34:36.360Z,3.53
2018-07-30T15:37:13.104Z,3.50
2018-07-30T15:39:53.157Z,3.90
2018-07-30T15:42:28.594Z,3.80
2018-07-30T15:45:03.848Z,5.43
2018-07-30T15:47:37.799Z,3.90
2018-07-30T15:50:14.000Z,3.40
2018-07-30T15:52:48.517Z,3.80
2018-07-30T15:55:25.007Z,3.70
2018-07-30T15:58:00.775Z,4.00
2018-07-30T16:00:35.616Z,3.83
2018-07-30T16:03:10.272Z,3.30
2018-07-30T16:05:45.015Z,3.90
2018-07-30T16:08:21.410Z,3.93
2018-07-30T16:10:56.796Z,3.93
2018-07-30T16:13:33.315Z,3.80
2018-07-30T16:16:07.817Z,3.50
2018-07-30T16:18:42.313Z,3.97
2018-07-30T16:21:16.871Z,3.97
2018-07-30T16:23:51.434Z,4.10
2018-07-30T16:26:25.991Z,3.93
2018-07-30T16:29:01.550Z,3.97
2018-07-30T16:31:36.371Z,4.30
2018-07-30T16:34:10.890Z,3.60
2018-07-30T16:36:46.858Z,3.47
2018-07-30T16:39:22.430Z,4.33
2018-07-30T16:41:56.913Z,4.40
2018-07-30T16:44:31.435Z,3.80
2018-07-30T16:47:05.977Z,3.90
2018-07-30T16:49:40.560Z,4.20
2018-07-30T16:52:15.367Z,3.87
2018-07-30T16:54:50.104Z,3.90
2018-07-30T16:57:24.928Z,3.83
2018-07-30T17:00:00.365Z,4.87
2018-07-30T17:02:34.831Z,3.87
2018-07-30T17:05:09.663Z,4.43
2018-07-30T17:07:44.282Z,3.90
2018-07-30T17:10:18.760Z,4.27
2018-07-30T17:12:53.166Z,4.60
2018-07-30T17:15:27.600Z,3.70
2018-07-30T17:18:01.978Z,3.90
2018-07-30T17:20:36.473Z,3.50
2018-07-30T17:23:10.973Z,3.77
2018-07-30T17:25:45.587Z,3.83
2018-07-30T17:28:20.018Z,3.80
2018-07-30T17:30:54.434Z,4.17
2018-07-30T17:33:29.896Z,3.50
2018-07-30T17:36:04.416Z,3.93
2018-07-30T17:38:38.871Z,3.97
2018-07-30T17:41:13.275Z,4.20
2018-07-30T17:43:48.192Z,4.37
2018-07-30T17:46:23.683Z,4.37
2018-07-30T17:48:58.381Z,3.73
2018-07-30T17:51:32.817Z,4.47
2018-07-30T17:54:10.283Z,4.10
2018-07-30T17:56:44.225Z,3.97
2018-07-30T17:59:18.684Z,3.90
2018-07-30T18:01:53.113Z,4.63
2018-07-30T18:04:27.547Z,3.77
2018-07-30T18:07:01.913Z,4.20
2018-07-30T18:09:36.392Z,3.77
2018-07-30T18:12:10.805Z,3.83
2018-07-30T18:14:45.109Z,3.97
2018-07-30T18:17:19.501Z,3.50
2018-07-30T18:19:54.903Z,3.87
2018-07-30T18:22:29.385Z,4.20
2018-07-30T18:25:03.909Z,3.83
2018-07-30T18:27:39.343Z,3.77
2018-07-30T18:30:13.775Z,3.90
2018-07-30T18:32:48.190Z,3.80
2018-07-30T18:35:22.620Z,3.80
2018-07-30T18:37:57.015Z,3.73
2018-07-30T18:40:32.467Z,3.90
2018-07-30T18:43:06.862Z,4.13
2018-07-30T18:45:41.350Z,4.13
2018-07-30T18:48:15.756Z,4.00
2018-07-30T18:50:50.225Z,3.90
2018-07-30T18:53:24.665Z,4.20
2018-07-30T18:55:59.423Z,3.70
2018-07-30T18:58:33.928Z,3.60
2018-07-30T19:01:08.724Z,3.80
2018-07-30T19:03:43.455Z,4.40
2018-07-30T19:06:18.211Z,3.90
2018-07-30T19:08:52.462Z,3.90
2018-07-30T19:11:27.124Z,4.03
2018-07-30T19:14:01.865Z,4.05
2018-07-30T19:16:36.587Z,4.40
2018-07-30T19:19:13.400Z,3.92
2018-07-30T19:21:51.702Z,3.95
2018-07-30T19:24:27.417Z,3.67
2018-07-30T19:27:03.366Z,3.92
2018-07-30T19:29:40.269Z,3.77
2018-07-30T19:32:17.270Z,4.00
2018-07-30T19:34:53.714Z,3.65
2018-07-30T19:37:29.589Z,3.98
2018-07-30T19:40:06.736Z,3.65
2018-07-30T19:42:43.783Z,3.58
2018-07-30T19:45:23.112Z,3.60
2018-07-30T19:47:59.114Z,3.60
2018-07-30T19:50:36.383Z,3.60
2018-07-30T19:53:14.910Z,3.52
2018-07-30T19:55:54.077Z,4.45
2018-07-30T19:58:31.386Z,4.17
2018-07-30T20:01:08.313Z,3.80
2018-07-30T20:03:45.737Z,4.42
2018-07-30T20:06:28.293Z,4.50
2018-07-30T20:09:04.272Z,4.58
2018-07-30T20:11:40.198Z,4.22
2018-07-30T20:14:17.052Z,4.60
2018-07-30T20:16:54.823Z,3.95
2018-07-30T20:19:32.827Z,3.70
2018-07-30T20:22:10.173Z,3.98
2018-07-30T20:24:46.353Z,4.05
2018-07-30T20:27:24.388Z,3.75
2018-07-30T20:30:02.976Z,3.98
2018-07-30T20:32:40.318Z,3.58
2018-07-30T20:35:18.715Z,4.22
2018-07-30T20:37:57.779Z,4.00
2018-07-30T20:40:36.575Z,4.15
2018-07-30T20:43:15.259Z,3.87
2018-07-30T20:45:52.895Z,3.87
2018-07-30T20:48:30.525Z,4.20
2018-07-30T20:51:06.894Z,3.83
2018-07-30T20:53:42.967Z,3.90
2018-07-30T20:56:20.710Z,3.92
2018-07-30T20:59:02.357Z,4.40
2018-07-30T21:01:39.528Z,3.72
2018-07-30T21:04:17.676Z,4.37
2018-07-30T21:06:54.887Z,4.30
2018-07-30T21:09:33.349Z,4.05
2018-07-30T21:12:10.970Z,4.25
2018-07-30T21:14:50.282Z,3.90
2018-07-30T21:17:25.317Z,4.17
2018-07-30T21:20:05.966Z,4.17
2018-07-30T21:22:48.332Z,4.05
2018-07-30T21:25:25.736Z,4.03
2018-07-30T21:28:01.857Z,3.75
2018-07-30T21:30:38.717Z,3.87
2018-07-30T21:33:17.111Z,3.58
2018-07-30T21:35:54.229Z,3.70
2018-07-30T21:38:33.991Z,4.25
2018-07-30T21:41:16.540Z,3.92
2018-07-30T21:43:57.723Z,3.90
2018-07-30T21:46:45.945Z,3.77
2018-07-30T21:49:24.842Z,3.83
2018-07-30T21:52:01.323Z,4.28
2018-07-30T21:54:38.434Z,4.12
2018-07-30T21:57:26.323Z,3.98
2018-07-30T22:00:05.511Z,3.75
2018-07-30T22:02:44.051Z,3.70
2018-07-30T22:05:22.718Z,3.50
2018-07-30T22:08:02.196Z,3.67
2018-07-30T22:10:39.552Z,3.95
2018-07-30T22:13:16.301Z,4.00
2018-07-30T22:15:52.581Z,3.62
2018-07-30T22:18:29.833Z,3.60
2018-07-30T22:21:07.549Z,3.60
2018-07-30T22:23:42.379Z,4.10
2018-07-30T22:26:16.607Z,3.67
2018-07-30T22:28:51.377Z,3.50
2018-07-30T22:31:26.112Z,3.70
2018-07-30T22:34:01.900Z,3.62
2018-07-30T22:36:37.671Z,3.67
2018-07-30T22:39:13.996Z,3.87
2018-07-30T22:41:48.765Z,3.60
2018-07-30T22:44:23.475Z,3.35
2018-07-30T22:46:58.197Z,3.58
2018-07-30T22:49:32.951Z,3.60
2018-07-30T22:52:07.701Z,3.80
2018-07-30T22:54:42.467Z,3.62
2018-07-30T22:57:37.504Z,3.22
2018-07-30T23:07:09.395Z,3.90
2018-07-30T23:09:55.751Z,3.30
2018-07-30T23:12:40.657Z,3.42
2018-07-30T23:18:22.818Z,3.17
2018-07-30T23:21:16.329Z,3.33
2018-07-30T23:26:54.614Z,3.27
2018-07-30T23:29:39.503Z,2.92
2018-07-30T23:32:14.548Z,3.40
2018-07-30T23:34:49.255Z,3.05
2018-07-30T23:37:25.196Z,3.45
2018-07-30T23:39:59.444Z,3.52
2018-07-30T23:42:38.029Z,3.40
2018-07-30T23:45:13.980Z,3.02
2018-07-30T23:47:52.708Z,3.37
2018-07-30T23:50:32.371Z,3.25
2018-07-30T23:53:12.594Z,3.33
2018-07-30T23:55:50.698Z,3.12
2018-07-30T23:58:29.271Z,3.40
